Time;durP1;ratioP1;P1;durP2;ratioP2;P2;SDS_P1;SDS_P2;PMS_P1;PMS_P2;Temp;Humidity;BMP_temperature;BMP_pressure;BME280_temperature;BME280_humidity;BME280_pressure;Samples;Min_cycle;Max_cycle;Signal;HPM_P1;HPM_P2
2022/12/30 00:00:08;;;;;;;3.80;1.35;;;21.50;36.70;;;;;;5045933;28;20056;-57
2022/12/30 00:02:36;;;;;;;2.55;1.13;;;21.50;36.70;;;;;;5042502;28;20038;-55
2022/12/30 00:05:02;;;;;;;3.60;1.45;;;21.50;36.70;;;;;;5043000;28;20068;-56
2022/12/30 00:07:28;;;;;;;3.22;1.25;;;21.50;36.70;;;;;;5046196;28;20098;-54
2022/12/30 00:09:54;;;;;;;3.42;1.70;;;21.50;36.70;;;;;;5046389;28;20437;-57
2022/12/30 00:35:13;;;;;;;3.30;1.40;;;21.30;36.80;;;;;;5026645;28;20025;-55
2022/12/30 00:37:39;;;;;;;4.90;1.27;;;21.30;36.80;;;;;;5041064;28;20041;-55
2022/12/30 00:40:06;;;;;;;2.83;1.15;;;21.30;36.90;;;;;;5040803;28;20037;-57
2022/12/30 00:45:16;;;;;;;4.25;1.58;;;21.30;36.90;;;;;;5043887;28;20185;-56
2022/12/30 00:47:43;;;;;;;3.47;1.33;;;21.30;36.90;;;;;;5045145;28;20032;-55
2022/12/30 00:58:23;;;;;;;3.38;1.35;;;21.20;36.90;;;;;;5046687;28;20099;-57
2022/12/30 01:00:49;;;;;;;3.05;1.27;;;21.20;36.90;;;;;;5048029;28;20486;-57
2022/12/30 01:03:15;;;;;;;5.55;1.90;;;21.20;36.90;;;;;;5046791;28;20029;-57
2022/12/30 01:05:41;;;;;;;3.33;1.08;;;21.20;37.00;;;;;;5046452;28;20025;-56
2022/12/30 01:08:07;;;;;;;3.45;1.40;;;21.20;37.00;;;;;;5045222;28;20029;-57
2022/12/30 01:10:33;;;;;;;2.55;1.27;;;21.20;37.00;;;;;;5045594;28;20116;-54
2022/12/30 01:12:59;;;;;;;3.58;1.23;;;21.20;37.00;;;;;;5047502;28;20100;-54
2022/12/30 01:15:25;;;;;;;3.85;1.40;;;21.20;37.00;;;;;;5044845;28;20040;-55
2022/12/30 01:17:51;;;;;;;3.00;1.30;;;21.10;36.90;;;;;;5048747;28;20044;-57
2022/12/30 01:20:17;;;;;;;3.80;1.30;;;21.10;36.90;;;;;;5030428;28;20056;-56
2022/12/30 01:22:42;;;;;;;2.67;0.88;;;21.20;37.00;;;;;;5044418;28;20033;-58
2022/12/30 01:25:09;;;;;;;2.13;0.95;;;21.10;37.00;;;;;;5047073;28;20448;-56
2022/12/30 01:27:34;;;;;;;2.60;0.98;;;21.10;36.90;;;;;;5044562;28;20021;-57
2022/12/30 01:30:01;;;;;;;2.10;1.00;;;21.10;37.00;;;;;;5045860;28;20350;-55
2022/12/30 01:32:29;;;;;;;4.50;1.10;;;21.10;37.00;;;;;;5047657;28;20029;-53
2022/12/30 01:34:56;;;;;;;3.88;1.30;;;21.10;37.00;;;;;;5044496;28;20144;-56
2022/12/30 01:37:22;;;;;;;2.72;0.93;;;21.10;37.00;;;;;;5045266;28;20367;-55
2022/12/30 01:39:48;;;;;;;3.50;1.08;;;21.10;37.00;;;;;;5044421;28;20464;-55
2022/12/30 01:42:35;;;;;;;2.70;0.98;;;21.10;37.00;;;;;;5046180;28;20033;-56
2022/12/30 01:45:23;;;;;;;1.60;0.80;;;21.10;37.00;;;;;;5046766;28;20036;-56
2022/12/30 01:48:01;;;;;;;3.85;1.45;;;21.00;36.90;;;;;;5027466;28;20040;-55
2022/12/30 01:50:33;;;;;;;3.60;1.08;;;21.00;36.90;;;;;;5043972;28;20037;-54
2022/12/30 01:53:05;;;;;;;2.88;1.00;;;21.00;37.00;;;;;;5045537;28;20071;-54
2022/12/30 01:55:48;;;;;;;3.92;1.00;;;21.00;37.00;;;;;;5045332;28;20440;-54
2022/12/30 01:58:24;;;;;;;1.50;1.00;;;21.00;37.00;;;;;;5046648;28;20103;-55
2022/12/30 02:00:49;;;;;;;3.97;1.30;;;21.00;37.00;;;;;;5044417;28;20018;-54
2022/12/30 02:03:15;;;;;;;3.58;1.30;;;21.00;37.00;;;;;;5042817;28;20033;-56
2022/12/30 02:05:43;;;;;;;2.65;0.90;;;21.00;37.00;;;;;;5045112;28;20083;-57
2022/12/30 02:08:12;;;;;;;2.83;1.00;;;21.00;37.00;;;;;;5046703;28;20028;-56
2022/12/30 02:10:41;;;;;;;2.78;1.00;;;21.00;37.00;;;;;;5045818;28;20594;-54
2022/12/30 02:13:13;;;;;;;2.90;1.13;;;21.00;37.00;;;;;;5044168;28;20032;-55
2022/12/30 02:16:11;;;;;;;3.58;1.40;;;21.00;37.00;;;;;;5044630;28;20356;-58
2022/12/30 02:19:24;;;;;;;2.53;0.80;;;20.90;37.00;;;;;;5045785;28;20384;-55
2022/12/30 02:22:25;;;;;;;3.20;1.40;;;20.90;37.00;;;;;;5041232;28;20132;-57
2022/12/30 02:24:56;;;;;;;4.25;1.33;;;20.90;37.00;;;;;;5030220;28;20179;-56
2022/12/30 02:27:25;;;;;;;3.70;1.33;;;20.90;37.00;;;;;;5043897;28;20124;-57
2022/12/30 02:30:36;;;;;;;2.83;0.90;;;20.90;37.00;;;;;;5043864;28;20356;-52
2022/12/30 02:33:10;;;;;;;4.57;1.27;;;20.90;37.00;;;;;;5046697;28;20029;-57
2022/12/30 02:36:04;;;;;;;2.80;1.17;;;20.80;37.00;;;;;;5044352;28;20025;-55
2022/12/30 02:38:47;;;;;;;2.70;0.90;;;20.90;37.00;;;;;;5043681;28;20376;-57
2022/12/30 02:44:37;;;;;;;4.68;1.10;;;20.80;37.00;;;;;;5043942;28;20037;-56
2022/12/30 02:47:19;;;;;;;2.92;1.13;;;20.80;37.00;;;;;;5046206;28;20029;-58
2022/12/30 02:52:14;;;;;;;4.38;1.20;;;20.80;37.00;;;;;;5044933;28;20021;-57
2022/12/30 02:52:35;;;;;;;3.83;1.17;;;20.80;37.00;;;;;;5041501;28;20025;-59
2022/12/30 02:55:01;;;;;;;4.63;1.02;;;20.80;37.00;;;;;;5043016;28;20025;-59
2022/12/30 02:57:30;;;;;;;3.38;1.13;;;20.80;37.00;;;;;;5042661;28;20361;-54
2022/12/30 03:06:44;;;;;;;4.50;1.30;;;20.70;37.00;;;;;;5045316;28;20064;-58
2022/12/30 03:09:34;;;;;;;2.83;1.10;;;20.70;37.00;;;;;;5044723;28;20027;-58
2022/12/30 03:12:16;;;;;;;2.30;0.90;;;20.70;37.10;;;;;;5024056;28;20039;-56
2022/12/30 03:14:51;;;;;;;3.33;1.35;;;20.70;37.10;;;;;;5044183;28;20046;-58
2022/12/30 03:17:27;;;;;;;2.20;1.10;;;20.70;37.10;;;;;;5043516;28;20119;-55
2022/12/30 03:19:59;;;;;;;3.50;1.23;;;20.70;37.10;;;;;;5046414;28;20037;-58
2022/12/30 03:28:04;;;;;;;2.65;1.15;;;20.70;37.50;;;;;;5046969;28;20112;-57
2022/12/30 03:30:32;;;;;;;2.63;0.90;;;20.70;37.20;;;;;;5043327;28;20037;-56
2022/12/30 03:32:58;;;;;;;5.70;1.70;;;20.60;37.10;;;;;;5042930;28;20021;-58
2022/12/30 03:35:27;;;;;;;2.33;1.08;;;20.70;37.20;;;;;;5043748;28;20051;-57
2022/12/30 03:37:57;;;;;;;3.95;1.38;;;20.70;37.20;;;;;;5043075;28;20029;-56
2022/12/30 03:40:32;;;;;;;4.18;1.42;;;20.60;37.20;;;;;;5043237;28;20456;-54
2022/12/30 03:42:59;;;;;;;3.03;0.85;;;20.60;37.20;;;;;;5026920;28;20030;-54
2022/12/30 03:45:25;;;;;;;2.95;1.35;;;20.60;37.20;;;;;;5043187;28;20032;-54
2022/12/30 03:47:51;;;;;;;3.88;1.23;;;20.60;37.20;;;;;;5043778;28;20068;-57
2022/12/30 03:50:17;;;;;;;2.58;0.98;;;20.60;37.20;;;;;;5024738;28;20025;-55
2022/12/30 03:52:43;;;;;;;2.88;1.00;;;20.60;37.20;;;;;;5046185;28;20029;-55
2022/12/30 03:55:09;;;;;;;3.30;1.10;;;20.60;37.20;;;;;;5023644;28;20052;-56
2022/12/30 03:57:36;;;;;;;3.83;1.13;;;20.60;37.20;;;;;;5046726;28;20041;-53
2022/12/30 04:00:03;;;;;;;3.47;1.40;;;20.60;37.20;;;;;;5041405;28;20029;-57
2022/12/30 04:02:38;;;;;;;3.47;1.42;;;20.50;37.20;;;;;;5042914;28;20029;-55
2022/12/30 04:05:05;;;;;;;3.13;1.30;;;20.50;37.20;;;;;;5041844;28;20527;-57
2022/12/30 04:07:32;;;;;;;2.72;0.98;;;20.50;37.20;;;;;;5052127;28;20021;-55
2022/12/30 04:09:57;;;;;;;5.35;1.27;;;20.50;37.20;;;;;;5052962;28;20025;-56
2022/12/30 04:12:23;;;;;;;2.88;1.08;;;20.50;37.20;;;;;;5043962;28;20040;-57
2022/12/30 04:14:49;;;;;;;4.40;1.48;;;20.60;37.20;;;;;;5043355;28;20033;-56
2022/12/30 04:17:15;;;;;;;3.83;1.15;;;20.50;37.20;;;;;;5025733;28;20041;-53
2022/12/30 04:19:41;;;;;;;2.25;1.02;;;20.50;37.20;;;;;;5046163;28;20026;-57
2022/12/30 04:22:06;;;;;;;3.25;1.17;;;20.50;37.20;;;;;;5043730;28;20044;-56
2022/12/30 04:24:32;;;;;;;3.65;1.10;;;20.50;37.20;;;;;;5042478;28;20035;-57
2022/12/30 04:26:58;;;;;;;3.90;1.45;;;20.50;37.20;;;;;;5042916;28;20037;-58
2022/12/30 04:29:24;;;;;;;3.50;1.20;;;20.50;37.10;;;;;;5045423;28;20029;-55
2022/12/30 04:31:50;;;;;;;4.28;1.10;;;20.50;37.10;;;;;;5047194;28;20094;-55
2022/12/30 04:34:16;;;;;;;2.90;1.27;;;20.50;37.20;;;;;;5049118;28;20056;-58
2022/12/30 04:36:42;;;;;;;3.22;1.40;;;20.40;37.10;;;;;;5045386;28;20037;-55
2022/12/30 04:39:08;;;;;;;3.08;1.00;;;20.40;37.20;;;;;;5030682;28;20043;-55
2022/12/30 04:41:34;;;;;;;3.97;1.35;;;20.40;37.10;;;;;;5045409;28;20037;-54
2022/12/30 04:44:04;;;;;;;4.43;1.50;;;20.40;37.10;;;;;;5047694;28;20033;-57
2022/12/30 04:46:30;;;;;;;4.35;1.50;;;20.40;37.20;;;;;;5046332;28;20538;-56
2022/12/30 04:48:56;;;;;;;2.85;1.15;;;20.40;37.20;;;;;;5046105;28;20037;-54
2022/12/30 04:51:22;;;;;;;3.10;1.33;;;20.40;37.20;;;;;;5044757;28;20356;-56
2022/12/30 04:53:48;;;;;;;2.65;1.40;;;20.40;37.20;;;;;;5044793;28;20059;-56
2022/12/30 04:56:14;;;;;;;3.17;1.15;;;20.40;37.10;;;;;;5046422;28;20041;-59
2022/12/30 04:58:40;;;;;;;3.92;1.30;;;20.40;37.20;;;;;;5048142;28;20432;-55
2022/12/30 05:01:06;;;;;;;2.83;1.10;;;20.40;37.20;;;;;;5045065;28;20021;-55
2022/12/30 05:03:32;;;;;;;3.35;1.05;;;20.40;37.20;;;;;;5046603;28;20032;-57
2022/12/30 05:05:58;;;;;;;4.75;1.80;;;20.40;37.20;;;;;;5045965;28;20028;-57
2022/12/30 05:08:23;;;;;;;2.60;1.10;;;20.40;37.20;;;;;;5048763;28;20100;-57
2022/12/30 05:10:49;;;;;;;3.58;1.25;;;20.40;37.20;;;;;;5045305;28;20035;-55
2022/12/30 05:13:15;;;;;;;3.08;1.20;;;20.40;37.20;;;;;;5044888;28;20021;-55
2022/12/30 05:15:41;;;;;;;3.75;1.60;;;20.30;37.20;;;;;;5046408;28;20475;-58
2022/12/30 05:18:08;;;;;;;3.42;1.10;;;20.30;37.20;;;;;;5047358;28;20353;-54
2022/12/30 05:20:34;;;;;;;4.38;1.60;;;20.30;37.20;;;;;;5045005;28;20421;-55
2022/12/30 05:23:00;;;;;;;3.13;1.17;;;20.30;37.20;;;;;;5046311;28;20117;-54
2022/12/30 05:28:10;;;;;;;3.35;1.15;;;20.30;37.20;;;;;;5045132;28;20037;-56
2022/12/30 05:30:36;;;;;;;4.35;1.20;;;20.30;37.20;;;;;;5048172;28;20052;-55
2022/12/30 05:33:02;;;;;;;4.22;1.10;;;20.30;37.20;;;;;;5045824;28;20042;-60
2022/12/30 05:35:29;;;;;;;5.00;1.40;;;20.30;37.20;;;;;;5045898;28;20026;-57
2022/12/30 05:37:55;;;;;;;3.45;1.30;;;20.20;37.80;;;;;;5045175;28;20512;-53
2022/12/30 05:40:21;;;;;;;3.67;1.52;;;20.20;37.20;;;;;;5044849;28;20048;-56
2022/12/30 05:42:46;;;;;;;5.38;1.23;;;20.30;37.30;;;;;;5027304;28;20112;-55
2022/12/30 05:45:12;;;;;;;2.67;1.33;;;20.20;37.20;;;;;;5048329;28;20025;-56
2022/12/30 05:47:38;;;;;;;3.92;1.40;;;20.20;37.20;;;;;;5044935;28;20037;-58
2022/12/30 05:50:04;;;;;;;4.53;1.17;;;20.20;37.20;;;;;;5046206;28;20021;-56
2022/12/30 05:52:30;;;;;;;4.95;1.23;;;20.20;37.20;;;;;;5044052;28;20369;-55
2022/12/30 05:54:56;;;;;;;3.08;1.20;;;20.20;37.30;;;;;;5046128;28;20029;-57
2022/12/30 05:57:22;;;;;;;3.10;1.15;;;20.20;37.20;;;;;;5044368;28;20051;-57
2022/12/30 05:59:48;;;;;;;3.33;1.15;;;20.20;37.20;;;;;;5043904;28;20403;-57
2022/12/30 06:02:15;;;;;;;4.47;1.52;;;20.20;37.30;;;;;;5045952;28;20029;-58
2022/12/30 06:04:41;;;;;;;4.85;1.35;;;20.20;37.30;;;;;;5047920;28;20021;-55
2022/12/30 06:07:07;;;;;;;4.35;1.10;;;20.20;37.30;;;;;;5044038;28;20108;-58
2022/12/30 06:09:32;;;;;;;3.17;1.30;;;20.20;37.30;;;;;;5045032;28;20033;-56
2022/12/30 06:11:58;;;;;;;5.13;1.23;;;20.20;37.30;;;;;;5045451;28;20032;-57
2022/12/30 06:14:24;;;;;;;4.22;1.40;;;20.10;37.30;;;;;;5043512;28;20463;-56
2022/12/30 06:16:50;;;;;;;4.25;0.98;;;20.20;37.40;;;;;;5043733;28;20037;-57
2022/12/30 06:19:16;;;;;;;3.75;1.30;;;20.20;37.40;;;;;;5045758;28;20032;-55
2022/12/30 06:21:41;;;;;;;3.95;1.33;;;20.20;37.40;;;;;;5045800;28;20034;-55
2022/12/30 06:24:07;;;;;;;3.58;1.30;;;20.10;37.40;;;;;;5043426;28;20040;-58
2022/12/30 06:26:33;;;;;;;2.67;1.10;;;20.10;37.40;;;;;;5045939;28;20036;-57
2022/12/30 06:28:59;;;;;;;3.95;1.13;;;20.10;37.40;;;;;;5044379;28;20025;-58
2022/12/30 06:31:25;;;;;;;3.10;1.13;;;20.10;37.40;;;;;;5044436;28;20360;-58
2022/12/30 06:33:51;;;;;;;4.13;1.20;;;20.10;37.50;;;;;;5047371;28;20045;-57
2022/12/30 06:36:16;;;;;;;3.42;1.25;;;20.10;37.50;;;;;;5026404;28;20044;-55
2022/12/30 06:38:42;;;;;;;3.92;1.25;;;20.10;37.50;;;;;;5027621;28;20017;-57
2022/12/30 06:41:08;;;;;;;5.07;1.42;;;20.10;37.50;;;;;;5043861;28;20446;-57
2022/12/30 06:43:34;;;;;;;5.07;1.30;;;20.10;37.50;;;;;;5046229;28;20060;-55
2022/12/30 06:46:00;;;;;;;3.78;1.33;;;20.00;37.50;;;;;;5044654;28;20107;-55
2022/12/30 06:48:26;;;;;;;4.57;1.50;;;20.00;37.50;;;;;;5025461;28;20033;-58
2022/12/30 06:50:59;;;;;;;3.30;1.20;;;20.10;37.50;;;;;;5045057;28;20049;-57
2022/12/30 06:53:25;;;;;;;5.40;1.30;;;20.10;37.60;;;;;;5043992;28;20057;-56
2022/12/30 06:55:51;;;;;;;3.15;1.05;;;20.10;37.60;;;;;;5043580;28;20021;-57
2022/12/30 06:58:17;;;;;;;3.72;1.35;;;20.00;37.50;;;;;;5040885;28;20468;-57
2022/12/30 07:00:42;;;;;;;3.97;1.45;;;20.00;37.50;;;;;;5043312;28;20056;-57
2022/12/30 07:03:11;;;;;;;4.90;1.60;;;20.00;37.60;;;;;;5042900;28;20037;-58
2022/12/30 07:05:36;;;;;;;3.60;1.20;;;20.00;37.50;;;;;;5045911;28;20079;-57
2022/12/30 07:08:03;;;;;;;3.38;1.17;;;20.00;37.60;;;;;;5047203;28;20033;-58
2022/12/30 07:10:28;;;;;;;4.60;1.50;;;20.00;37.60;;;;;;5053714;28;20087;-58
2022/12/30 07:13:01;;;;;;;3.03;1.05;;;20.00;37.60;;;;;;5060737;28;20381;-56
2022/12/30 07:15:27;;;;;;;4.30;1.40;;;20.00;37.60;;;;;;5037048;28;20036;-55
2022/12/30 07:17:53;;;;;;;3.25;1.48;;;20.00;37.60;;;;;;5040987;28;20460;-57
2022/12/30 07:20:19;;;;;;;2.80;1.13;;;20.00;37.60;;;;;;5040050;28;20080;-53
2022/12/30 07:22:45;;;;;;;3.85;1.20;;;19.90;37.50;;;;;;5038257;28;20033;-58
2022/12/30 07:25:11;;;;;;;3.10;1.23;;;19.90;37.50;;;;;;5041064;28;20022;-51
2022/12/30 07:27:37;;;;;;;4.25;1.17;;;19.90;37.50;;;;;;5032939;28;20104;-57
2022/12/30 07:30:03;;;;;;;4.25;1.42;;;19.90;37.60;;;;;;5040392;28;20105;-56
2022/12/30 07:32:29;;;;;;;3.10;1.30;;;19.90;37.60;;;;;;5038206;28;20033;-58
2022/12/30 07:34:55;;;;;;;7.43;1.80;;;19.90;37.60;;;;;;5040517;28;20337;-57
2022/12/30 07:37:21;;;;;;;4.15;1.38;;;19.90;37.60;;;;;;5041862;28;20033;-56
2022/12/30 07:39:47;;;;;;;3.53;1.30;;;19.90;37.60;;;;;;5038466;28;20017;-56
2022/12/30 07:42:13;;;;;;;5.00;1.48;;;19.90;37.60;;;;;;5040037;28;20095;-57
2022/12/30 07:44:39;;;;;;;2.95;1.13;;;19.90;37.70;;;;;;5038584;28;20021;-53
2022/12/30 07:47:05;;;;;;;3.05;1.10;;;19.90;37.70;;;;;;5032467;28;20445;-55
2022/12/30 07:49:31;;;;;;;4.28;1.05;;;19.90;37.70;;;;;;5039670;28;20059;-54
2022/12/30 07:51:57;;;;;;;3.50;1.40;;;19.90;37.70;;;;;;5039798;28;20145;-56
2022/12/30 07:54:23;;;;;;;4.63;1.27;;;19.90;37.70;;;;;;5036683;28;20053;-56
2022/12/30 07:56:49;;;;;;;5.80;1.08;;;19.90;37.80;;;;;;5033314;28;20362;-57
2022/12/30 07:59:15;;;;;;;3.10;1.35;;;19.90;37.80;;;;;;5040205;28;20133;-53
2022/12/30 08:01:41;;;;;;;4.22;1.40;;;19.90;37.80;;;;;;5035340;28;20029;-53
2022/12/30 08:04:07;;;;;;;4.18;1.15;;;19.90;37.80;;;;;;5039094;28;20025;-54
2022/12/30 08:06:33;;;;;;;4.60;1.75;;;19.90;37.90;;;;;;5030009;28;20025;-54
2022/12/30 08:09:03;;;;;;;3.63;1.20;;;19.90;37.90;;;;;;5023146;28;20048;-57
2022/12/30 08:11:33;;;;;;;6.00;1.45;;;19.90;37.90;;;;;;5037489;28;20099;-57
2022/12/30 08:13:59;;;;;;;4.10;0.90;;;19.90;37.90;;;;;;5055456;28;20457;-54
2022/12/30 08:16:25;;;;;;;4.15;1.23;;;19.90;38.00;;;;;;5058159;28;20029;-54
2022/12/30 08:18:51;;;;;;;4.32;1.33;;;19.90;38.10;;;;;;5051759;28;20033;-59
2022/12/30 08:21:17;;;;;;;3.42;1.10;;;19.90;38.80;;;;;;5033954;28;20095;-57
2022/12/30 08:23:45;;;;;;;3.88;1.23;;;20.00;38.30;;;;;;5051407;28;20524;-53
2022/12/30 08:26:18;;;;;;;3.25;1.23;;;20.00;38.30;;;;;;5044378;28;20024;-56
2022/12/30 08:28:44;;;;;;;2.08;0.80;;;20.00;38.30;;;;;;5043671;28;20471;-58
2022/12/30 08:31:13;;;;;;;2.85;1.13;;;20.10;38.40;;;;;;5044451;28;20084;-57
2022/12/30 08:33:39;;;;;;;2.67;1.20;;;20.10;38.40;;;;;;5042911;28;20037;-57
2022/12/30 08:36:07;;;;;;;2.90;1.00;;;20.20;38.50;;;;;;5032795;28;20463;-56
2022/12/30 08:38:35;;;;;;;2.85;0.88;;;20.30;38.50;;;;;;5046535;28;20033;-55
2022/12/30 08:41:11;;;;;;;2.90;0.90;;;20.30;38.40;;;;;;5043969;28;20029;-57
2022/12/30 08:43:37;;;;;;;3.10;0.98;;;20.40;38.30;;;;;;5041702;28;20021;-53
2022/12/30 08:46:03;;;;;;;1.58;0.75;;;20.50;38.30;;;;;;5040660;28;20047;-50
2022/12/30 08:48:30;;;;;;;2.80;0.93;;;20.60;38.20;;;;;;5046414;28;20029;-57
2022/12/30 08:50:56;;;;;;;3.38;1.20;;;20.60;38.10;;;;;;5040422;28;20057;-57
2022/12/30 08:53:22;;;;;;;3.35;0.90;;;20.70;38.10;;;;;;5044238;28;20028;-54
2022/12/30 08:55:48;;;;;;;2.80;1.10;;;20.70;38.10;;;;;;5043140;28;20048;-53
2022/12/30 08:58:14;;;;;;;2.90;1.00;;;20.80;38.20;;;;;;5045000;28;20108;-54
2022/12/30 09:00:40;;;;;;;3.60;1.25;;;20.90;38.20;;;;;;5039570;28;20120;-58
2022/12/30 09:03:07;;;;;;;2.20;0.85;;;20.90;38.20;;;;;;5046151;28;20072;-55
2022/12/30 09:05:34;;;;;;;3.33;1.10;;;21.00;38.00;;;;;;5044629;28;20472;-58
2022/12/30 09:08:00;;;;;;;2.95;1.17;;;21.10;38.50;;;;;;5041388;28;20118;-56
2022/12/30 09:10:26;;;;;;;3.35;1.00;;;21.10;37.70;;;;;;5042381;28;20460;-56
2022/12/30 09:12:52;;;;;;;2.15;0.90;;;21.20;37.60;;;;;;5040733;28;20046;-58
2022/12/30 09:15:18;;;;;;;2.83;0.80;;;21.20;37.50;;;;;;5044205;28;20456;-53
2022/12/30 09:17:44;;;;;;;2.38;0.90;;;21.20;37.40;;;;;;5030399;28;20022;-54
2022/12/30 09:20:10;;;;;;;1.77;0.70;;;21.20;37.30;;;;;;5030880;28;20037;-53
2022/12/30 09:22:36;;;;;;;1.90;0.80;;;21.30;37.20;;;;;;5043782;28;20040;-54
2022/12/30 09:25:02;;;;;;;3.30;1.05;;;21.30;37.10;;;;;;5039542;28;20035;-54
2022/12/30 09:27:28;;;;;;;3.95;1.15;;;21.30;37.10;;;;;;5036252;28;20029;-55
2022/12/30 09:29:54;;;;;;;3.17;0.93;;;21.40;37.10;;;;;;5045867;28;20405;-54
2022/12/30 09:32:20;;;;;;;3.85;0.80;;;21.40;37.20;;;;;;5042909;28;20037;-55
2022/12/30 09:34:45;;;;;;;1.85;0.70;;;21.50;37.10;;;;;;5042411;28;20064;-56
2022/12/30 09:37:11;;;;;;;2.97;0.95;;;21.50;37.10;;;;;;5047687;28;20025;-50
2022/12/30 09:39:37;;;;;;;3.42;0.80;;;21.60;37.00;;;;;;5036246;28;20025;-53
2022/12/30 09:44:55;;;;;;;1.90;0.80;;;21.70;36.80;;;;;;5046283;28;20040;-51
2022/12/30 09:47:27;;;;;;;1.80;0.68;;;21.80;36.70;;;;;;5045041;28;20118;-55
2022/12/30 09:50:16;;;;;;;1.88;0.88;;;21.80;36.60;;;;;;5044726;28;20035;-54
2022/12/30 09:52:59;;;;;;;2.33;0.80;;;21.90;36.50;;;;;;5041648;28;20046;-54
2022/12/30 09:55:30;;;;;;;2.60;0.70;;;22.00;36.50;;;;;;5039845;28;20030;-54
2022/12/30 09:58:00;;;;;;;1.75;0.80;;;22.00;36.40;;;;;;5045112;28;20044;-56
2022/12/30 10:00:32;;;;;;;1.08;0.82;;;22.10;36.30;;;;;;5040948;28;20030;-56
2022/12/30 10:03:19;;;;;;;2.05;0.88;;;22.10;36.30;;;;;;5038549;28;20048;-57
2022/12/30 10:06:12;;;;;;;1.50;0.98;;;22.20;36.20;;;;;;5039955;28;20044;-47
2022/12/30 10:08:59;;;;;;;1.25;0.77;;;22.20;36.10;;;;;;5042316;28;20036;-55
2022/12/30 10:11:32;;;;;;;1.70;0.80;;;22.30;36.00;;;;;;5034773;28;20069;-56
2022/12/30 10:14:05;;;;;;;1.52;0.60;;;22.30;35.90;;;;;;5041547;28;20071;-54
2022/12/30 10:16:58;;;;;;;2.00;0.80;;;22.40;35.90;;;;;;5042510;28;20021;-52
2022/12/30 10:19:36;;;;;;;1.42;0.70;;;22.40;35.80;;;;;;5042149;28;20032;-56
2022/12/30 10:22:19;;;;;;;1.83;0.70;;;22.40;35.70;;;;;;5043972;28;20035;-55
2022/12/30 10:25:16;;;;;;;2.88;0.60;;;22.50;35.70;;;;;;5043365;28;20026;-52
2022/12/30 10:27:47;;;;;;;2.15;0.75;;;22.50;35.60;;;;;;5026604;28;20045;-52
2022/12/30 10:30:16;;;;;;;1.63;0.70;;;22.60;35.50;;;;;;5043309;28;20024;-54
2022/12/30 10:32:51;;;;;;;3.03;0.80;;;22.60;35.50;;;;;;5043481;28;20037;-55
2022/12/30 10:35:21;;;;;;;1.98;0.90;;;22.60;35.40;;;;;;5042336;28;20436;-54
2022/12/30 10:37:51;;;;;;;1.65;0.70;;;22.60;35.30;;;;;;5042159;28;20464;-56
2022/12/30 10:40:17;;;;;;;1.55;0.80;;;22.70;35.30;;;;;;5043379;28;20353;-55
2022/12/30 10:43:02;;;;;;;2.00;0.68;;;22.70;35.20;;;;;;5040007;28;20271;-57
2022/12/30 10:45:45;;;;;;;1.77;0.60;;;22.80;35.20;;;;;;5042990;28;20116;-54
2022/12/30 10:48:16;;;;;;;3.38;0.88;;;22.80;35.10;;;;;;5043289;28;20029;-58
2022/12/30 10:50:45;;;;;;;1.13;0.63;;;22.80;35.10;;;;;;5040386;28;20464;-57
2022/12/30 10:53:22;;;;;;;1.17;0.57;;;22.80;35.10;;;;;;5041974;28;20338;-57
2022/12/30 10:56:01;;;;;;;1.65;0.90;;;22.80;35.00;;;;;;5037987;28;20071;-57
2022/12/30 10:58:34;;;;;;;1.65;0.70;;;22.80;35.00;;;;;;5041996;28;20028;-57
2022/12/30 11:01:01;;;;;;;1.42;0.77;;;22.90;35.00;;;;;;5042236;28;20028;-56
2022/12/30 11:03:29;;;;;;;2.20;1.00;;;22.90;35.00;;;;;;5038575;28;20029;-57
2022/12/30 11:05:56;;;;;;;1.08;0.80;;;22.90;35.00;;;;;;5043069;28;20104;-58
2022/12/30 11:08:26;;;;;;;2.13;0.80;;;22.90;35.00;;;;;;5041545;28;21645;-57
2022/12/30 11:11:04;;;;;;;2.08;0.80;;;22.90;35.00;;;;;;5041469;28;20091;-55
2022/12/30 11:16:27;;;;;;;1.65;0.73;;;22.90;34.90;;;;;;5042284;28;20034;-56
2022/12/30 11:18:56;;;;;;;3.47;1.08;;;22.90;34.90;;;;;;5037384;28;20034;-56
2022/12/30 11:21:33;;;;;;;1.98;0.70;;;22.90;34.90;;;;;;5038555;28;20121;-56
2022/12/30 11:24:02;;;;;;;1.67;0.75;;;22.90;35.00;;;;;;5037937;28;20037;-55
2022/12/30 11:26:32;;;;;;;2.08;0.70;;;22.90;35.00;;;;;;5038547;28;20021;-55
2022/12/30 11:29:04;;;;;;;1.77;0.80;;;22.90;35.70;;;;;;5032404;28;20037;-56
2022/12/30 11:31:36;;;;;;;2.22;0.77;;;22.90;35.10;;;;;;5035474;28;20038;-56
2022/12/30 11:34:05;;;;;;;2.05;0.82;;;22.90;35.20;;;;;;5040200;28;20036;-57
2022/12/30 11:36:32;;;;;;;1.95;0.70;;;22.80;35.10;;;;;;5035601;28;20043;-56
2022/12/30 11:39:26;;;;;;;4.05;0.88;;;22.80;35.10;;;;;;5030056;28;20457;-54
2022/12/30 11:41:54;;;;;;;1.80;0.70;;;22.80;35.10;;;;;;5012625;28;20516;-54
2022/12/30 11:44:26;;;;;;;1.38;0.75;;;22.80;35.10;;;;;;5040374;28;20040;-55
2022/12/30 11:47:06;;;;;;;2.65;0.90;;;22.80;35.70;;;;;;5043949;28;20044;-56
2022/12/30 11:49:53;;;;;;;2.05;0.60;;;22.80;35.00;;;;;;5043234;28;20091;-58
2022/12/30 11:52:25;;;;;;;1.20;0.50;;;22.80;35.00;;;;;;5040368;28;20086;-54
2022/12/30 11:55:00;;;;;;;3.15;1.00;;;22.80;35.10;;;;;;5037693;28;20040;-58
2022/12/30 11:57:42;;;;;;;2.10;0.85;;;22.80;35.40;;;;;;5022092;28;20036;-58
2022/12/30 12:00:16;;;;;;;2.28;0.88;;;22.80;35.70;;;;;;5019416;28;20054;-58
2022/12/30 12:03:02;;;;;;;4.07;0.98;;;22.80;35.90;;;;;;5018550;28;20040;-59
2022/12/30 12:05:40;;;;;;;4.43;0.80;;;22.80;35.90;;;;;;5026544;28;20028;-59
2022/12/30 12:08:30;;;;;;;2.60;1.20;;;22.80;35.80;;;;;;5021491;28;20077;-59
2022/12/30 12:11:21;;;;;;;3.17;0.93;;;22.90;35.60;;;;;;5015349;28;20476;-59
2022/12/30 12:13:52;;;;;;;1.38;0.60;;;23.00;35.40;;;;;;5036119;28;20057;-59
2022/12/30 12:16:59;;;;;;;1.75;0.68;;;23.00;35.20;;;;;;5037309;28;20032;-59
2022/12/30 12:19:53;;;;;;;3.03;1.00;;;23.20;35.00;;;;;;5030099;28;20328;-58
2022/12/30 12:22:52;;;;;;;1.52;0.70;;;23.20;34.70;;;;;;5021647;28;20053;-60
2022/12/30 12:25:27;;;;;;;2.20;0.77;;;23.30;34.60;;;;;;5025291;28;20034;-60
2022/12/30 12:27:58;;;;;;;1.88;0.70;;;23.40;34.40;;;;;;5015926;28;20025;-57
2022/12/30 12:31:00;;;;;;;2.58;0.70;;;23.40;34.30;;;;;;5014485;28;20457;-60
2022/12/30 12:34:09;;;;;;;4.43;1.00;;;23.50;34.20;;;;;;5022987;28;20034;-57
2022/12/30 12:36:53;;;;;;;1.80;0.82;;;23.60;34.10;;;;;;5007495;28;20116;-55
2022/12/30 12:39:52;;;;;;;2.15;0.70;;;23.60;34.00;;;;;;5020898;28;20034;-55
2022/12/30 12:42:30;;;;;;;1.65;0.70;;;23.60;33.80;;;;;;5025982;28;20164;-58
2022/12/30 12:45:35;;;;;;;1.73;0.70;;;23.70;33.80;;;;;;5003374;28;20030;-57
2022/12/30 12:48:43;;;;;;;1.85;0.52;;;23.70;33.60;;;;;;5031346;28;20170;-52
2022/12/30 12:51:25;;;;;;;1.40;0.50;;;23.80;33.60;;;;;;5009448;28;20065;-55
2022/12/30 12:54:17;;;;;;;2.00;0.90;;;23.80;33.60;;;;;;5025629;28;20034;-56
2022/12/30 12:57:10;;;;;;;1.80;0.70;;;23.80;33.90;;;;;;5026909;28;20025;-56
2022/12/30 12:59:45;;;;;;;3.63;0.90;;;23.80;34.00;;;;;;5024629;28;20033;-54
2022/12/30 13:02:48;;;;;;;2.75;0.90;;;23.80;34.10;;;;;;5022296;28;20064;-60
2022/12/30 13:05:37;;;;;;;2.20;0.80;;;23.90;34.30;;;;;;5021182;28;20029;-62
2022/12/30 13:08:37;;;;;;;2.00;0.70;;;23.90;34.30;;;;;;5029843;28;20246;-57
2022/12/30 13:11:18;;;;;;;1.35;0.50;;;23.90;34.40;;;;;;5011471;28;20068;-58
2022/12/30 13:14:25;;;;;;;4.68;0.90;;;23.90;34.40;;;;;;5005144;28;20033;-56
2022/12/30 13:17:00;;;;;;;3.58;0.80;;;24.00;34.40;;;;;;5026498;28;20029;-56
2022/12/30 13:19:41;;;;;;;1.48;0.60;;;24.00;34.30;;;;;;5027454;28;20025;-57
2022/12/30 13:22:18;;;;;;;2.03;0.73;;;24.00;34.20;;;;;;5023583;28;20113;-57
2022/12/30 13:24:53;;;;;;;2.35;0.90;;;24.00;34.00;;;;;;5025875;28;20029;-59
2022/12/30 13:27:25;;;;;;;2.15;0.70;;;24.10;33.90;;;;;;5021337;28;20453;-59
2022/12/30 13:29:55;;;;;;;1.52;0.80;;;24.10;33.90;;;;;;5025966;28;20059;-57
2022/12/30 13:32:51;;;;;;;1.38;0.73;;;24.20;34.70;;;;;;5030743;28;20061;-59
2022/12/30 13:35:48;;;;;;;2.40;0.80;;;24.20;34.20;;;;;;5017184;28;21531;-58
2022/12/30 13:38:51;;;;;;;2.45;0.73;;;24.20;34.20;;;;;;5014320;28;20026;-57
2022/12/30 13:41:22;;;;;;;1.45;0.70;;;24.30;34.20;;;;;;5026447;28;20041;-60
2022/12/30 13:44:02;;;;;;;4.30;0.75;;;24.30;34.20;;;;;;5028795;28;20386;-56
2022/12/30 13:46:33;;;;;;;1.63;0.60;;;24.40;34.20;;;;;;5015587;28;20109;-59
2022/12/30 13:49:25;;;;;;;1.63;0.60;;;24.40;34.30;;;;;;5025910;28;20104;-58
2022/12/30 13:52:00;;;;;;;3.72;0.75;;;24.40;34.20;;;;;;5026202;28;20374;-60
2022/12/30 13:54:28;;;;;;;1.17;0.70;;;24.40;34.10;;;;;;5023131;28;20030;-59
2022/12/30 13:56:55;;;;;;;2.65;0.70;;;24.50;34.00;;;;;;5022654;28;20037;-60
2022/12/30 13:59:30;;;;;;;1.00;0.60;;;24.60;34.10;;;;;;5023048;28;20109;-57
2022/12/30 14:02:38;;;;;;;1.50;0.50;;;24.60;34.00;;;;;;5023574;28;20049;-59
2022/12/30 14:05:39;;;;;;;3.92;0.68;;;24.60;34.00;;;;;;5021496;28;20029;-54
2022/12/30 14:08:17;;;;;;;1.77;0.80;;;24.60;33.90;;;;;;5025864;28;20059;-60
2022/12/30 14:10:56;;;;;;;1.10;0.60;;;24.70;33.80;;;;;;5027864;28;20121;-58